createdAt,value
2018-12-04T00:02:18.469Z,99.90
2018-12-04T00:04:44.787Z,99.90
2018-12-04T00:07:11.178Z,99.90
2018-12-04T00:09:52.868Z,99.90
2018-12-04T00:12:19.289Z,99.90
2018-12-04T00:14:45.720Z,99.90
2018-12-04T00:17:12.011Z,99.90
2018-12-04T00:19:39.275Z,99.90
2018-12-04T00:22:06.785Z,99.90
2018-12-04T00:24:33.941Z,99.90
2018-12-04T00:27:00.269Z,99.90
2018-12-04T00:29:26.670Z,99.90
2018-12-04T00:31:53.020Z,99.90
2018-12-04T00:34:19.683Z,99.90
2018-12-04T00:36:46.034Z,99.90
2018-12-04T00:39:13.775Z,99.90
2018-12-04T00:41:40.235Z,99.90
2018-12-04T00:44:06.448Z,99.90
2018-12-04T00:46:32.765Z,99.90
2018-12-04T00:49:00.197Z,99.90
2018-12-04T00:51:26.492Z,99.90
2018-12-04T00:53:52.747Z,99.90
2018-12-04T00:56:19.051Z,99.90
2018-12-04T00:58:45.348Z,99.90
2018-12-04T01:01:11.605Z,99.90
2018-12-04T01:03:37.815Z,99.90
2018-12-04T01:06:04.056Z,99.90
2018-12-04T01:08:30.322Z,99.90
2018-12-04T01:10:56.760Z,99.90
2018-12-04T01:13:23.080Z,99.90
2018-12-04T01:15:50.416Z,99.90
2018-12-04T01:18:16.657Z,99.90
2018-12-04T01:20:44.124Z,99.90
2018-12-04T01:23:10.423Z,99.90
2018-12-04T01:25:36.772Z,99.90
2018-12-04T01:28:03.129Z,99.90
2018-12-04T01:30:29.475Z,99.90
2018-12-04T01:32:55.902Z,99.90
2018-12-04T01:35:22.200Z,99.90
2018-12-04T01:37:48.507Z,99.90
2018-12-04T01:40:14.756Z,99.90
2018-12-04T01:42:41.161Z,99.90
2018-12-04T01:45:07.519Z,99.90
2018-12-04T01:47:33.923Z,99.90
2018-12-04T01:50:00.211Z,99.90
2018-12-04T01:52:26.478Z,99.90
2018-12-04T01:54:52.752Z,99.90
2018-12-04T01:57:19.017Z,99.90
2018-12-04T01:59:45.310Z,99.90
2018-12-04T02:02:11.673Z,99.90
2018-12-04T02:04:37.903Z,99.90
2018-12-04T02:07:04.199Z,99.90
2018-12-04T02:09:30.502Z,99.90
2018-12-04T02:11:56.802Z,99.90
2018-12-04T02:14:23.074Z,99.90
2018-12-04T02:16:49.354Z,99.90
2018-12-04T02:19:15.922Z,99.90
2018-12-04T02:21:42.849Z,99.90
2018-12-04T02:24:09.088Z,99.90
2018-12-04T02:26:35.330Z,99.90
2018-12-04T02:29:01.577Z,99.90
2018-12-04T02:31:27.873Z,99.90
2018-12-04T02:33:54.159Z,99.90
2018-12-04T02:36:20.388Z,99.90
2018-12-04T02:38:46.737Z,99.90
2018-12-04T02:41:13.007Z,99.90
2018-12-04T02:43:39.220Z,99.90
2018-12-04T02:46:05.504Z,99.90
2018-12-04T02:48:31.802Z,99.90
2018-12-04T02:50:59.194Z,99.90
2018-12-04T02:53:25.453Z,99.90
2018-12-04T02:55:51.815Z,99.90
2018-12-04T02:58:18.032Z,99.90
2018-12-04T03:00:44.269Z,99.90
2018-12-04T03:03:10.615Z,99.90
2018-12-04T03:05:37.025Z,99.90
2018-12-04T03:08:03.374Z,99.90
2018-12-04T03:10:29.616Z,99.90
2018-12-04T03:12:55.885Z,99.90
2018-12-04T03:15:22.344Z,99.90
2018-12-04T03:17:48.579Z,99.90
2018-12-04T03:20:14.823Z,99.90
2018-12-04T03:22:41.045Z,99.90
2018-12-04T03:25:07.408Z,99.90
2018-12-04T03:27:34.091Z,99.90
2018-12-04T03:30:00.323Z,99.90
2018-12-04T03:32:26.598Z,99.90
2018-12-04T03:34:52.878Z,99.90
2018-12-04T03:37:19.167Z,99.90
2018-12-04T03:39:45.523Z,99.90
2018-12-04T03:42:11.955Z,99.90
2018-12-04T03:44:38.279Z,99.90
2018-12-04T03:47:04.705Z,99.90
2018-12-04T03:49:30.998Z,99.90
2018-12-04T03:51:57.256Z,99.90
2018-12-04T03:54:23.578Z,99.90
2018-12-04T03:56:50.067Z,99.90
2018-12-04T03:59:16.839Z,99.90
2018-12-04T04:04:22.863Z,99.90
2018-12-04T04:11:36.460Z,99.90
2018-12-04T04:14:02.832Z,99.90
2018-12-04T04:16:29.158Z,99.90
2018-12-04T04:18:55.476Z,99.90
2018-12-04T04:21:21.672Z,99.90
2018-12-04T04:23:47.919Z,99.90
2018-12-04T04:26:14.344Z,99.90
2018-12-04T04:28:40.613Z,99.90
2018-12-04T04:31:06.944Z,99.90
2018-12-04T04:33:33.325Z,99.90
2018-12-04T04:35:59.650Z,99.90
2018-12-04T04:38:26.036Z,99.90
2018-12-04T04:40:52.424Z,99.90
2018-12-04T04:43:18.743Z,99.90
2018-12-04T04:45:45.165Z,99.90
2018-12-04T04:48:11.458Z,99.90
2018-12-04T04:50:37.883Z,99.90
2018-12-04T04:53:04.187Z,99.90
2018-12-04T04:55:30.461Z,99.90
2018-12-04T04:57:56.758Z,99.90
2018-12-04T05:00:23.066Z,99.90
2018-12-04T05:02:49.482Z,99.90
2018-12-04T05:05:15.754Z,99.90
2018-12-04T05:07:42.131Z,99.90
2018-12-04T05:10:08.378Z,99.90
2018-12-04T05:12:34.676Z,99.90
2018-12-04T05:15:01.005Z,99.90
2018-12-04T05:17:27.320Z,99.90
2018-12-04T05:19:53.640Z,99.90
2018-12-04T05:22:19.893Z,99.90
2018-12-04T05:24:46.305Z,99.90
2018-12-04T05:27:13.498Z,99.90
2018-12-04T05:29:39.993Z,99.90
2018-12-04T05:32:06.382Z,99.90
2018-12-04T05:34:32.649Z,99.90
2018-12-04T05:36:59.084Z,99.90
2018-12-04T05:39:25.366Z,99.90
2018-12-04T05:41:53.660Z,99.90
2018-12-04T05:44:19.925Z,99.90
2018-12-04T05:46:46.134Z,99.90
2018-12-04T05:49:12.432Z,99.90
2018-12-04T05:51:38.800Z,99.90
2018-12-04T05:54:09.134Z,99.90
2018-12-04T05:56:35.468Z,99.90
2018-12-04T05:59:01.689Z,99.90
2018-12-04T06:01:27.926Z,99.90
2018-12-04T06:03:54.107Z,99.90
2018-12-04T06:06:20.405Z,99.90
2018-12-04T06:08:46.755Z,99.90
2018-12-04T06:11:13.046Z,99.90
2018-12-04T06:13:39.426Z,99.90
2018-12-04T06:16:05.742Z,99.90
2018-12-04T06:18:31.999Z,99.90
2018-12-04T06:20:58.325Z,99.90
2018-12-04T06:23:24.716Z,99.90
2018-12-04T06:25:51.047Z,99.90
2018-12-04T06:28:17.401Z,99.90
2018-12-04T06:30:43.626Z,99.90
2018-12-04T06:33:09.948Z,99.90
2018-12-04T06:35:36.505Z,99.90
2018-12-04T06:38:06.142Z,99.90
2018-12-04T06:40:32.468Z,99.90
2018-12-04T06:42:59.261Z,99.90
2018-12-04T06:45:25.577Z,99.90
2018-12-04T06:47:51.800Z,99.90
2018-12-04T06:50:18.067Z,99.90
2018-12-04T06:52:44.335Z,99.90
2018-12-04T06:55:10.588Z,99.90
2018-12-04T06:57:36.827Z,99.90
2018-12-04T07:00:04.931Z,99.90
2018-12-04T07:02:31.225Z,99.90
2018-12-04T07:04:57.512Z,99.90
2018-12-04T07:07:23.927Z,99.90
2018-12-04T07:09:50.133Z,99.90
2018-12-04T07:12:16.323Z,99.90
2018-12-04T07:14:42.614Z,99.90
2018-12-04T07:17:08.826Z,99.90
2018-12-04T07:19:35.052Z,99.90
2018-12-04T07:22:01.248Z,99.90
2018-12-04T07:24:27.458Z,99.90
2018-12-04T07:26:53.686Z,99.90
2018-12-04T07:29:19.935Z,99.90
2018-12-04T07:31:46.165Z,99.90
2018-12-04T07:34:12.363Z,99.90
2018-12-04T07:36:38.700Z,99.90
2018-12-04T07:39:06.184Z,99.90
2018-12-04T07:41:32.446Z,99.90
2018-12-04T07:43:58.681Z,99.90
2018-12-04T07:46:24.902Z,99.90
2018-12-04T07:48:51.099Z,99.90
2018-12-04T07:51:17.319Z,99.90
2018-12-04T07:53:44.666Z,99.90
2018-12-04T07:56:10.899Z,99.90
2018-12-04T07:58:37.136Z,99.90
2018-12-04T08:01:03.377Z,99.90
2018-12-04T08:03:29.591Z,99.90
2018-12-04T08:05:55.900Z,99.90
2018-12-04T08:08:22.127Z,99.90
2018-12-04T08:10:48.328Z,99.90
2018-12-04T08:13:14.573Z,99.90
2018-12-04T08:15:40.798Z,99.90
2018-12-04T08:18:07.124Z,99.90
2018-12-04T08:20:33.361Z,99.90
2018-12-04T08:22:59.817Z,99.90
2018-12-04T08:25:26.092Z,99.90
2018-12-04T08:27:52.360Z,99.90
2018-12-04T08:30:18.766Z,99.90
2018-12-04T08:32:45.075Z,99.90
2018-12-04T08:35:11.443Z,99.90
2018-12-04T08:37:37.833Z,99.90
2018-12-04T08:40:05.567Z,99.90
2018-12-04T08:42:31.869Z,99.90
2018-12-04T08:44:58.200Z,99.90
2018-12-04T08:47:24.407Z,99.90
2018-12-04T08:52:34.606Z,99.90
2018-12-04T08:55:01.030Z,99.90
2018-12-04T08:57:27.331Z,99.90
2018-12-04T08:59:53.654Z,99.90
2018-12-04T09:02:19.916Z,99.90
2018-12-04T09:04:46.372Z,99.90
2018-12-04T09:07:12.746Z,99.90
2018-12-04T09:09:38.956Z,99.90
2018-12-04T09:12:05.190Z,99.90
2018-12-04T09:14:31.852Z,99.90
2018-12-04T09:16:58.208Z,99.90
2018-12-04T09:19:24.444Z,99.90
2018-12-04T09:24:43.050Z,99.90
2018-12-04T09:30:04.044Z,99.90
2018-12-04T09:32:30.268Z,99.90
2018-12-04T09:34:56.463Z,99.90
2018-12-04T09:37:22.938Z,99.90
2018-12-04T09:39:49.134Z,99.90
2018-12-04T09:42:15.592Z,99.90
2018-12-04T09:44:42.934Z,99.90
2018-12-04T09:47:09.231Z,99.90
2018-12-04T09:49:35.445Z,99.90
2018-12-04T09:52:01.885Z,99.90
2018-12-04T09:54:28.174Z,99.90
2018-12-04T09:56:54.390Z,99.90
2018-12-04T09:59:20.622Z,99.90
2018-12-04T10:01:46.960Z,99.90
2018-12-04T10:04:14.291Z,99.90
2018-12-04T10:06:40.470Z,99.90
2018-12-04T10:09:07.142Z,99.90
2018-12-04T10:11:33.414Z,99.90
2018-12-04T10:13:59.657Z,99.90
2018-12-04T10:16:25.890Z,99.90
2018-12-04T10:18:52.124Z,99.90
2018-12-04T10:21:18.535Z,99.90
2018-12-04T10:23:45.835Z,99.90
2018-12-04T10:26:12.043Z,99.90
2018-12-04T10:28:38.321Z,99.90
2018-12-04T10:31:08.580Z,99.90
2018-12-04T10:33:34.794Z,99.90
2018-12-04T10:36:01.123Z,99.90
2018-12-04T10:38:27.360Z,99.90
2018-12-04T10:40:53.595Z,99.90
2018-12-04T10:43:19.822Z,99.90
2018-12-04T10:45:46.027Z,99.90
2018-12-04T10:48:12.227Z,99.90
2018-12-04T10:50:38.445Z,99.90
2018-12-04T10:53:04.696Z,99.90
2018-12-04T10:55:30.966Z,99.90
2018-12-04T10:57:57.241Z,99.90
2018-12-04T11:00:29.795Z,99.90
2018-12-04T11:02:58.147Z,99.90
2018-12-04T11:05:24.392Z,99.90
2018-12-04T11:07:50.648Z,99.90
2018-12-04T11:10:16.900Z,99.90
2018-12-04T11:12:44.114Z,99.90
2018-12-04T11:15:10.392Z,99.90
2018-12-04T11:17:36.693Z,99.90
2018-12-04T11:20:06.786Z,99.90
2018-12-04T11:22:33.196Z,99.90
2018-12-04T11:24:59.428Z,99.90
2018-12-04T11:27:25.635Z,99.90
2018-12-04T11:29:51.840Z,99.90
2018-12-04T11:32:18.090Z,99.90
2018-12-04T11:34:44.387Z,99.90
2018-12-04T11:37:10.628Z,99.90
2018-12-04T11:39:36.881Z,99.90
2018-12-04T11:42:03.648Z,99.90
2018-12-04T11:44:29.847Z,99.90
2018-12-04T11:46:56.045Z,99.90
2018-12-04T11:49:22.223Z,99.90
2018-12-04T11:51:48.517Z,99.90
2018-12-04T11:54:14.881Z,99.90
2018-12-04T11:56:41.119Z,99.90
2018-12-04T11:59:07.392Z,99.90
2018-12-04T12:01:33.817Z,99.90
2018-12-04T12:04:00.041Z,99.90
2018-12-04T12:06:26.292Z,99.90
2018-12-04T12:08:52.604Z,99.90
2018-12-04T12:11:18.909Z,99.90
2018-12-04T12:13:46.209Z,99.90
2018-12-04T12:16:12.507Z,99.90
2018-12-04T12:18:38.763Z,99.90
2018-12-04T12:21:04.974Z,99.90
2018-12-04T12:23:31.168Z,99.90
2018-12-04T12:25:57.441Z,98.80
2018-12-04T12:28:23.782Z,97.30
2018-12-04T12:30:49.995Z,97.00
2018-12-04T12:33:17.272Z,96.90
2018-12-04T12:35:43.531Z,97.20
2018-12-04T12:38:09.810Z,95.60
2018-12-04T12:40:36.202Z,96.50
2018-12-04T12:43:02.468Z,96.60
2018-12-04T12:45:28.905Z,95.90
2018-12-04T12:47:55.202Z,95.30
2018-12-04T12:50:21.446Z,95.00
2018-12-04T12:52:47.651Z,95.60
2018-12-04T12:55:13.941Z,95.10
2018-12-04T12:57:40.475Z,95.40
2018-12-04T13:00:08.221Z,94.70
2018-12-04T13:02:34.658Z,95.00
2018-12-04T13:05:00.894Z,94.60
2018-12-04T13:07:27.075Z,94.20
2018-12-04T13:09:53.281Z,95.50
2018-12-04T13:12:19.572Z,94.10
2018-12-04T13:14:46.803Z,94.90
2018-12-04T13:17:12.983Z,95.70
2018-12-04T13:19:39.223Z,95.80
2018-12-04T13:22:05.538Z,96.30
2018-12-04T13:24:32.771Z,95.80
2018-12-04T13:26:59.030Z,96.00
2018-12-04T13:29:25.293Z,96.60
2018-12-04T13:31:53.079Z,96.80
2018-12-04T13:34:19.429Z,96.20
2018-12-04T13:36:45.636Z,96.20
2018-12-04T13:39:11.965Z,95.60
2018-12-04T13:41:38.304Z,95.30
2018-12-04T13:44:04.657Z,95.70
2018-12-04T13:46:30.914Z,95.90
2018-12-04T13:48:57.262Z,96.40
2018-12-04T13:51:23.483Z,97.20
2018-12-04T13:53:49.777Z,97.00
2018-12-04T13:56:15.982Z,97.30
2018-12-04T13:58:42.263Z,97.70
2018-12-04T14:01:08.427Z,97.80
2018-12-04T14:03:34.640Z,98.50
2018-12-04T14:06:00.814Z,99.10
2018-12-04T14:08:27.121Z,99.80
2018-12-04T14:10:53.276Z,99.90
2018-12-04T14:13:19.544Z,99.90
2018-12-04T14:15:45.824Z,99.90
2018-12-04T14:18:12.209Z,99.90
2018-12-04T14:20:38.431Z,99.90
2018-12-04T14:23:05.193Z,99.90
2018-12-04T14:25:31.570Z,99.90
2018-12-04T14:27:57.838Z,99.90
2018-12-04T14:30:24.149Z,99.90
2018-12-04T14:32:50.417Z,99.90
2018-12-04T14:35:16.829Z,99.90
2018-12-04T14:37:43.040Z,99.90
2018-12-04T14:40:09.457Z,99.90
2018-12-04T14:42:35.778Z,99.90
2018-12-04T14:45:02.555Z,99.90
2018-12-04T14:47:28.875Z,99.90
2018-12-04T14:49:55.249Z,99.90
2018-12-04T14:52:21.487Z,99.90
2018-12-04T14:54:47.765Z,99.90
2018-12-04T14:57:14.049Z,99.90
2018-12-04T14:59:40.655Z,99.90
2018-12-04T15:02:06.917Z,99.90
2018-12-04T15:04:33.133Z,99.90
2018-12-04T15:06:59.460Z,99.90
2018-12-04T15:09:25.799Z,99.90
2018-12-04T15:11:52.287Z,99.90
2018-12-04T15:14:18.489Z,99.90
2018-12-04T15:16:44.782Z,99.90
2018-12-04T15:19:11.117Z,99.90
2018-12-04T15:21:37.354Z,99.90
2018-12-04T15:24:03.615Z,99.90
2018-12-04T15:26:29.841Z,99.90
2018-12-04T15:28:56.112Z,99.90
2018-12-04T15:31:22.365Z,99.90
2018-12-04T15:33:48.754Z,99.90
2018-12-04T15:36:15.009Z,99.90
2018-12-04T15:38:41.321Z,99.90
2018-12-04T15:41:07.778Z,99.90
2018-12-04T15:43:34.083Z,99.90
2018-12-04T15:46:00.498Z,99.90
2018-12-04T15:48:26.827Z,99.90
2018-12-04T15:50:59.700Z,99.90
2018-12-04T15:53:21.319Z,99.90
2018-12-04T15:55:47.659Z,99.90
2018-12-04T15:58:13.930Z,99.90
2018-12-04T16:00:40.141Z,99.90
2018-12-04T16:03:06.353Z,99.90
2018-12-04T16:05:32.583Z,99.90
2018-12-04T16:07:58.824Z,99.90
2018-12-04T16:10:25.073Z,99.90
2018-12-04T16:12:51.295Z,99.90
2018-12-04T16:15:17.558Z,99.90
2018-12-04T16:17:44.193Z,99.90
2018-12-04T16:20:10.545Z,99.90
2018-12-04T16:22:36.856Z,99.90
2018-12-04T16:25:05.155Z,99.90
2018-12-04T16:27:31.437Z,99.90
2018-12-04T16:30:01.157Z,99.90
2018-12-04T16:32:27.584Z,99.90
2018-12-04T16:34:53.928Z,99.90
2018-12-04T16:37:20.376Z,99.90
2018-12-04T16:39:46.578Z,99.90
2018-12-04T16:42:12.953Z,99.90
2018-12-04T16:44:39.176Z,99.90
2018-12-04T16:47:05.403Z,99.90
2018-12-04T16:49:31.615Z,99.90
2018-12-04T16:51:57.938Z,99.90
2018-12-04T16:54:24.209Z,99.90
2018-12-04T16:56:50.606Z,99.90
2018-12-04T16:59:16.815Z,99.90
2018-12-04T17:01:43.107Z,99.90
2018-12-04T17:04:09.423Z,99.90
2018-12-04T17:06:35.830Z,99.90
2018-12-04T17:09:04.609Z,99.90
2018-12-04T17:11:30.942Z,99.90
2018-12-04T17:13:57.232Z,99.90
2018-12-04T17:16:23.506Z,99.90
2018-12-04T17:18:49.852Z,99.90
2018-12-04T17:21:16.191Z,99.90
2018-12-04T17:23:42.388Z,99.90
2018-12-04T17:26:08.626Z,99.90
2018-12-04T17:28:34.824Z,99.90
2018-12-04T17:31:01.212Z,99.90
2018-12-04T17:33:27.461Z,99.90
2018-12-04T17:35:53.739Z,99.90
2018-12-04T17:38:19.993Z,99.90
2018-12-04T17:40:46.318Z,99.90
2018-12-04T17:43:12.780Z,99.90
2018-12-04T17:45:39.153Z,99.90
2018-12-04T17:48:05.681Z,99.90
2018-12-04T17:50:32.071Z,99.90
2018-12-04T17:52:58.653Z,99.90
2018-12-04T17:55:24.979Z,99.90
2018-12-04T17:57:51.271Z,99.90
2018-12-04T18:00:17.753Z,99.90
2018-12-04T18:02:44.089Z,99.90
2018-12-04T18:05:15.424Z,99.90
2018-12-04T18:07:41.808Z,99.90
2018-12-04T18:10:08.266Z,99.90
2018-12-04T18:12:34.605Z,99.90
2018-12-04T18:15:01.019Z,99.90
2018-12-04T18:17:27.611Z,99.90
2018-12-04T18:19:53.884Z,99.90
2018-12-04T18:22:20.152Z,99.90
2018-12-04T18:24:47.270Z,99.90
2018-12-04T18:27:13.707Z,99.90
2018-12-04T18:29:40.026Z,99.90
2018-12-04T18:32:06.478Z,99.90
2018-12-04T18:34:32.837Z,99.90
2018-12-04T18:36:59.432Z,99.90
2018-12-04T18:39:25.821Z,99.90
2018-12-04T18:41:52.020Z,99.90
2018-12-04T18:44:18.678Z,99.90
2018-12-04T18:46:44.899Z,99.90
2018-12-04T18:49:11.104Z,99.90
2018-12-04T18:51:37.368Z,99.90
2018-12-04T18:54:03.630Z,99.90
2018-12-04T18:56:29.859Z,99.90
2018-12-04T18:58:56.071Z,99.90
2018-12-04T19:01:22.399Z,99.90
2018-12-04T19:03:48.641Z,99.90
2018-12-04T19:06:14.944Z,99.90
2018-12-04T19:08:46.957Z,99.90
2018-12-04T19:11:13.277Z,99.90
2018-12-04T19:13:39.635Z,99.90
2018-12-04T19:16:05.986Z,99.90
2018-12-04T19:18:32.313Z,99.90
2018-12-04T19:20:58.555Z,99.90
2018-12-04T19:23:24.848Z,99.90
2018-12-04T19:25:51.125Z,99.90
2018-12-04T19:28:17.451Z,99.90
2018-12-04T19:30:43.876Z,99.90
2018-12-04T19:33:10.191Z,99.90
2018-12-04T19:35:36.455Z,99.90
2018-12-04T19:38:02.800Z,99.90
2018-12-04T19:40:29.119Z,99.90
2018-12-04T19:42:56.495Z,99.90
2018-12-04T19:45:23.792Z,99.90
2018-12-04T19:47:50.066Z,99.90
2018-12-04T19:50:16.589Z,99.90
2018-12-04T19:52:42.920Z,99.90
2018-12-04T19:55:09.192Z,99.90
2018-12-04T19:57:35.528Z,99.90
2018-12-04T20:00:02.171Z,99.90
2018-12-04T20:02:28.586Z,99.90
2018-12-04T20:04:54.925Z,99.90
2018-12-04T20:07:21.280Z,99.90
2018-12-04T20:09:47.518Z,99.90
2018-12-04T20:12:13.877Z,99.90
2018-12-04T20:14:40.140Z,99.90
2018-12-04T20:17:06.381Z,99.90
2018-12-04T20:19:32.796Z,99.90
2018-12-04T20:21:59.042Z,99.90
2018-12-04T20:24:25.390Z,99.90
2018-12-04T20:26:51.683Z,99.90
2018-12-04T20:29:17.973Z,99.90
2018-12-04T20:31:44.204Z,99.90
2018-12-04T20:34:10.454Z,99.90
2018-12-04T20:36:36.922Z,99.90
2018-12-04T20:39:04.995Z,99.90
2018-12-04T20:41:31.193Z,99.90
2018-12-04T20:43:58.709Z,99.90
2018-12-04T20:46:24.963Z,99.90
2018-12-04T20:48:51.238Z,99.90
2018-12-04T20:51:17.570Z,99.90
2018-12-04T20:53:43.893Z,99.90
2018-12-04T20:56:11.484Z,99.90
2018-12-04T20:58:37.742Z,99.90
2018-12-04T21:01:04.187Z,99.90
2018-12-04T21:03:30.584Z,99.90
2018-12-04T21:05:56.981Z,99.90
2018-12-04T21:08:23.255Z,99.90
2018-12-04T21:10:49.693Z,99.90
2018-12-04T21:13:16.125Z,99.90
2018-12-04T21:15:42.349Z,99.90
2018-12-04T21:18:08.606Z,99.90
2018-12-04T21:20:34.899Z,99.90
2018-12-04T21:23:01.314Z,99.90
2018-12-04T21:25:28.608Z,99.90
2018-12-04T21:30:59.325Z,99.90
2018-12-04T21:33:31.674Z,99.90
2018-12-04T21:36:04.125Z,99.90
2018-12-04T21:38:36.914Z,99.90
2018-12-04T21:41:05.242Z,99.90
2018-12-04T21:43:37.570Z,99.90
2018-12-04T21:46:10.015Z,99.90
2018-12-04T21:48:36.143Z,99.90
2018-12-04T21:51:02.450Z,99.90
2018-12-04T21:53:28.686Z,99.90
2018-12-04T21:55:54.977Z,99.90
2018-12-04T21:58:21.193Z,99.90
2018-12-04T22:00:47.356Z,99.90
2018-12-04T22:03:13.783Z,99.90
2018-12-04T22:05:40.858Z,99.90
2018-12-04T22:08:06.932Z,99.90
2018-12-04T22:10:33.182Z,99.90
2018-12-04T22:12:59.373Z,99.90
2018-12-04T22:15:25.428Z,99.90
2018-12-04T22:17:51.592Z,99.90
2018-12-04T22:20:17.775Z,99.90
2018-12-04T22:22:43.912Z,99.90
2018-12-04T22:25:10.270Z,99.90
2018-12-04T22:27:36.466Z,99.90
2018-12-04T22:30:04.847Z,99.90
2018-12-04T22:32:30.977Z,99.90
2018-12-04T22:34:57.180Z,99.90
2018-12-04T22:37:23.308Z,99.90
2018-12-04T22:39:49.655Z,99.90
2018-12-04T22:42:15.773Z,99.90
2018-12-04T22:44:42.153Z,99.90
2018-12-04T22:47:08.452Z,99.90
2018-12-04T22:49:34.583Z,99.90
2018-12-04T22:52:00.733Z,99.90
2018-12-04T22:54:26.943Z,99.90
2018-12-04T22:56:53.200Z,99.90
2018-12-04T22:59:19.400Z,99.90
2018-12-04T23:01:45.706Z,99.90
2018-12-04T23:04:11.834Z,99.90
2018-12-04T23:06:37.996Z,99.90
2018-12-04T23:09:06.589Z,99.90
2018-12-04T23:11:32.894Z,99.90
2018-12-04T23:13:59.064Z,99.90
2018-12-04T23:16:25.466Z,99.90
2018-12-04T23:18:51.687Z,99.90
2018-12-04T23:21:17.892Z,99.90
2018-12-04T23:23:44.339Z,99.90
2018-12-04T23:26:10.443Z,99.90
2018-12-04T23:28:36.621Z,99.90
2018-12-04T23:31:03.040Z,99.90
2018-12-04T23:33:29.399Z,99.90
2018-12-04T23:35:55.681Z,99.90
2018-12-04T23:38:22.002Z,99.90
2018-12-04T23:40:48.435Z,99.90
2018-12-04T23:43:15.930Z,99.90
2018-12-04T23:45:42.269Z,99.90
2018-12-04T23:48:08.654Z,99.90
2018-12-04T23:50:35.218Z,99.90
2018-12-04T23:53:01.555Z,99.90
2018-12-04T23:55:27.847Z,99.90
2018-12-04T23:57:54.201Z,99.90
